sensor_id;sensor_type;location;lat;lon;timestamp;temperature;humidity
80279;DHT22;70683;52.492;13.416;2024-02-26T00:01:47;8.20;81.00
80279;DHT22;70683;52.492;13.416;2024-02-26T00:04:13;8.20;81.20
80279;DHT22;70683;52.492;13.416;2024-02-26T00:06:40;8.20;81.40
80279;DHT22;70683;52.492;13.416;2024-02-26T00:09:07;8.10;81.70
80279;DHT22;70683;52.492;13.416;2024-02-26T00:11:36;8.20;81.90
80279;DHT22;70683;52.492;13.416;2024-02-26T00:14:03;8.20;81.80
80279;DHT22;70683;52.492;13.416;2024-02-26T00:16:30;8.10;82.30
80279;DHT22;70683;52.492;13.416;2024-02-26T00:18:57;8.10;82.60
80279;DHT22;70683;52.492;13.416;2024-02-26T00:21:23;8.10;82.80
80279;DHT22;70683;52.492;13.416;2024-02-26T00:23:50;8.20;82.80
80279;DHT22;70683;52.492;13.416;2024-02-26T00:26:17;8.20;82.90
80279;DHT22;70683;52.492;13.416;2024-02-26T00:28:43;8.10;82.90
80279;DHT22;70683;52.492;13.416;2024-02-26T00:31:10;8.10;83.30
80279;DHT22;70683;52.492;13.416;2024-02-26T00:33:37;8.10;83.50
80279;DHT22;70683;52.492;13.416;2024-02-26T00:36:05;8.10;83.30
80279;DHT22;70683;52.492;13.416;2024-02-26T00:38:31;8.00;83.80
80279;DHT22;70683;52.492;13.416;2024-02-26T00:40:59;8.00;84.20
80279;DHT22;70683;52.492;13.416;2024-02-26T00:43:25;7.90;84.70
80279;DHT22;70683;52.492;13.416;2024-02-26T00:45:52;7.90;84.80
80279;DHT22;70683;52.492;13.416;2024-02-26T00:48:18;7.80;85.10
80279;DHT22;70683;52.492;13.416;2024-02-26T00:50:45;7.70;85.70
80279;DHT22;70683;52.492;13.416;2024-02-26T00:53:11;7.60;86.00
80279;DHT22;70683;52.492;13.416;2024-02-26T00:55:38;7.70;86.20
80279;DHT22;70683;52.492;13.416;2024-02-26T00:58:05;7.60;86.20
80279;DHT22;70683;52.492;13.416;2024-02-26T01:00:31;7.60;86.50
80279;DHT22;70683;52.492;13.416;2024-02-26T01:02:58;7.50;86.70
80279;DHT22;70683;52.492;13.416;2024-02-26T01:05:25;7.50;87.00
80279;DHT22;70683;52.492;13.416;2024-02-26T01:07:52;7.50;87.00
80279;DHT22;70683;52.492;13.416;2024-02-26T01:10:19;7.50;87.00
80279;DHT22;70683;52.492;13.416;2024-02-26T01:12:45;7.40;87.40
80279;DHT22;70683;52.492;13.416;2024-02-26T01:15:13;7.40;87.80
80279;DHT22;70683;52.492;13.416;2024-02-26T01:17:40;7.40;88.00
80279;DHT22;70683;52.492;13.416;2024-02-26T01:20:07;7.40;88.10
80279;DHT22;70683;52.492;13.416;2024-02-26T01:22:35;7.40;88.30
80279;DHT22;70683;52.492;13.416;2024-02-26T01:25:01;7.40;88.10
80279;DHT22;70683;52.492;13.416;2024-02-26T01:27:28;7.50;88.00
80279;DHT22;70683;52.492;13.416;2024-02-26T01:29:54;7.40;87.90
80279;DHT22;70683;52.492;13.416;2024-02-26T01:32:21;7.40;88.00
80279;DHT22;70683;52.492;13.416;2024-02-26T01:34:48;7.30;88.40
80279;DHT22;70683;52.492;13.416;2024-02-26T01:37:14;7.30;88.20
80279;DHT22;70683;52.492;13.416;2024-02-26T01:39:41;7.30;88.10
80279;DHT22;70683;52.492;13.416;2024-02-26T01:42:07;7.40;88.50
80279;DHT22;70683;52.492;13.416;2024-02-26T01:44:34;7.40;87.90
80279;DHT22;70683;52.492;13.416;2024-02-26T01:47:01;7.40;88.00
80279;DHT22;70683;52.492;13.416;2024-02-26T01:49:29;7.40;88.10
80279;DHT22;70683;52.492;13.416;2024-02-26T01:51:56;7.30;88.10
80279;DHT22;70683;52.492;13.416;2024-02-26T01:54:23;7.40;88.30
80279;DHT22;70683;52.492;13.416;2024-02-26T01:56:50;7.30;88.30
80279;DHT22;70683;52.492;13.416;2024-02-26T01:59:18;7.40;88.20
80279;DHT22;70683;52.492;13.416;2024-02-26T02:01:45;7.30;88.20
80279;DHT22;70683;52.492;13.416;2024-02-26T02:04:14;7.40;88.00
80279;DHT22;70683;52.492;13.416;2024-02-26T02:06:43;7.40;88.00
80279;DHT22;70683;52.492;13.416;2024-02-26T02:09:12;7.40;87.90
80279;DHT22;70683;52.492;13.416;2024-02-26T02:11:38;7.30;88.00
80279;DHT22;70683;52.492;13.416;2024-02-26T02:14:06;7.20;88.40
80279;DHT22;70683;52.492;13.416;2024-02-26T02:16:32;7.20;88.70
80279;DHT22;70683;52.492;13.416;2024-02-26T02:19:00;7.30;89.10
80279;DHT22;70683;52.492;13.416;2024-02-26T02:21:26;7.30;88.70
80279;DHT22;70683;52.492;13.416;2024-02-26T02:23:53;7.40;88.20
80279;DHT22;70683;52.492;13.416;2024-02-26T02:26:20;7.40;88.00
80279;DHT22;70683;52.492;13.416;2024-02-26T02:28:47;7.30;88.00
80279;DHT22;70683;52.492;13.416;2024-02-26T02:31:15;7.30;87.60
80279;DHT22;70683;52.492;13.416;2024-02-26T02:33:42;7.30;87.50
80279;DHT22;70683;52.492;13.416;2024-02-26T02:36:09;7.30;87.70
80279;DHT22;70683;52.492;13.416;2024-02-26T02:38:37;7.20;87.90
80279;DHT22;70683;52.492;13.416;2024-02-26T02:41:04;7.20;87.80
80279;DHT22;70683;52.492;13.416;2024-02-26T02:43:31;7.10;88.00
80279;DHT22;70683;52.492;13.416;2024-02-26T02:45:58;7.20;87.80
80279;DHT22;70683;52.492;13.416;2024-02-26T02:48:24;7.10;87.80
80279;DHT22;70683;52.492;13.416;2024-02-26T02:50:51;7.00;88.40
80279;DHT22;70683;52.492;13.416;2024-02-26T02:53:17;6.80;88.90
80279;DHT22;70683;52.492;13.416;2024-02-26T02:55:44;6.80;89.40
80279;DHT22;70683;52.492;13.416;2024-02-26T02:58:11;6.80;89.80
80279;DHT22;70683;52.492;13.416;2024-02-26T03:00:37;6.80;89.50
80279;DHT22;70683;52.492;13.416;2024-02-26T03:03:04;6.90;89.20
80279;DHT22;70683;52.492;13.416;2024-02-26T03:05:31;6.80;89.20
80279;DHT22;70683;52.492;13.416;2024-02-26T03:07:58;6.80;89.40
80279;DHT22;70683;52.492;13.416;2024-02-26T03:10:24;6.70;89.70
80279;DHT22;70683;52.492;13.416;2024-02-26T03:12:51;6.60;90.00
80279;DHT22;70683;52.492;13.416;2024-02-26T03:15:17;6.60;90.30
80279;DHT22;70683;52.492;13.416;2024-02-26T03:17:44;6.60;90.20
80279;DHT22;70683;52.492;13.416;2024-02-26T03:20:11;6.50;90.20
80279;DHT22;70683;52.492;13.416;2024-02-26T03:22:39;6.50;90.60
80279;DHT22;70683;52.492;13.416;2024-02-26T03:25:07;6.40;90.40
80279;DHT22;70683;52.492;13.416;2024-02-26T03:27:33;6.40;90.50
80279;DHT22;70683;52.492;13.416;2024-02-26T03:30:00;6.40;90.70
80279;DHT22;70683;52.492;13.416;2024-02-26T03:32:26;6.50;90.50
80279;DHT22;70683;52.492;13.416;2024-02-26T03:34:53;6.40;90.50
80279;DHT22;70683;52.492;13.416;2024-02-26T03:37:21;6.20;90.70
80279;DHT22;70683;52.492;13.416;2024-02-26T03:39:48;6.20;91.00
80279;DHT22;70683;52.492;13.416;2024-02-26T03:42:15;6.20;91.10
80279;DHT22;70683;52.492;13.416;2024-02-26T03:44:42;6.30;91.10
80279;DHT22;70683;52.492;13.416;2024-02-26T03:47:09;6.30;91.00
80279;DHT22;70683;52.492;13.416;2024-02-26T03:49:36;6.30;90.90
80279;DHT22;70683;52.492;13.416;2024-02-26T03:52:02;6.30;90.90
80279;DHT22;70683;52.492;13.416;2024-02-26T03:54:29;6.30;91.00
80279;DHT22;70683;52.492;13.416;2024-02-26T03:56:56;6.20;91.10
80279;DHT22;70683;52.492;13.416;2024-02-26T03:59:22;6.10;91.50
80279;DHT22;70683;52.492;13.416;2024-02-26T04:01:51;6.20;91.50
80279;DHT22;70683;52.492;13.416;2024-02-26T04:04:17;6.20;91.30
80279;DHT22;70683;52.492;13.416;2024-02-26T04:06:45;6.20;91.10
80279;DHT22;70683;52.492;13.416;2024-02-26T04:09:14;6.20;91.10
80279;DHT22;70683;52.492;13.416;2024-02-26T04:11:41;6.20;91.30
80279;DHT22;70683;52.492;13.416;2024-02-26T04:14:09;6.20;91.20
80279;DHT22;70683;52.492;13.416;2024-02-26T04:16:37;6.30;91.10
80279;DHT22;70683;52.492;13.416;2024-02-26T04:19:05;6.20;91.10
80279;DHT22;70683;52.492;13.416;2024-02-26T04:21:33;6.30;91.40
80279;DHT22;70683;52.492;13.416;2024-02-26T04:23:59;6.30;91.50
80279;DHT22;70683;52.492;13.416;2024-02-26T04:26:28;6.40;91.40
80279;DHT22;70683;52.492;13.416;2024-02-26T04:28:55;6.40;91.30
80279;DHT22;70683;52.492;13.416;2024-02-26T04:31:22;6.30;91.10
80279;DHT22;70683;52.492;13.416;2024-02-26T04:33:48;6.30;91.30
80279;DHT22;70683;52.492;13.416;2024-02-26T04:36:15;6.30;91.30
80279;DHT22;70683;52.492;13.416;2024-02-26T04:38:43;6.40;90.90
80279;DHT22;70683;52.492;13.416;2024-02-26T04:41:09;6.40;91.00
80279;DHT22;70683;52.492;13.416;2024-02-26T04:43:37;6.40;91.30
80279;DHT22;70683;52.492;13.416;2024-02-26T04:46:08;6.40;91.40
80279;DHT22;70683;52.492;13.416;2024-02-26T04:48:36;6.40;91.00
80279;DHT22;70683;52.492;13.416;2024-02-26T04:51:02;6.30;91.10
80279;DHT22;70683;52.492;13.416;2024-02-26T04:53:29;6.30;91.20
80279;DHT22;70683;52.492;13.416;2024-02-26T04:55:56;6.30;91.50
80279;DHT22;70683;52.492;13.416;2024-02-26T04:58:23;6.40;91.40
80279;DHT22;70683;52.492;13.416;2024-02-26T05:00:50;6.30;91.10
80279;DHT22;70683;52.492;13.416;2024-02-26T05:03:16;6.40;91.40
80279;DHT22;70683;52.492;13.416;2024-02-26T05:05:44;6.40;91.20
80279;DHT22;70683;52.492;13.416;2024-02-26T05:08:10;6.50;91.50
80279;DHT22;70683;52.492;13.416;2024-02-26T05:10:37;6.50;91.70
80279;DHT22;70683;52.492;13.416;2024-02-26T05:13:07;6.60;91.60
80279;DHT22;70683;52.492;13.416;2024-02-26T05:15:35;6.60;91.10
80279;DHT22;70683;52.492;13.416;2024-02-26T05:18:02;6.70;91.40
80279;DHT22;70683;52.492;13.416;2024-02-26T05:20:29;6.70;91.20
80279;DHT22;70683;52.492;13.416;2024-02-26T05:22:57;6.70;90.90
80279;DHT22;70683;52.492;13.416;2024-02-26T05:25:24;6.80;90.80
80279;DHT22;70683;52.492;13.416;2024-02-26T05:27:51;6.70;90.70
80279;DHT22;70683;52.492;13.416;2024-02-26T05:30:18;6.80;90.90
80279;DHT22;70683;52.492;13.416;2024-02-26T05:32:44;6.80;90.70
80279;DHT22;70683;52.492;13.416;2024-02-26T05:35:11;6.90;90.80
80279;DHT22;70683;52.492;13.416;2024-02-26T05:37:37;7.00;90.60
80279;DHT22;70683;52.492;13.416;2024-02-26T05:40:06;6.90;90.30
80279;DHT22;70683;52.492;13.416;2024-02-26T05:42:33;7.00;90.40
80279;DHT22;70683;52.492;13.416;2024-02-26T05:44:59;6.90;90.40
80279;DHT22;70683;52.492;13.416;2024-02-26T05:47:28;6.90;90.40
80279;DHT22;70683;52.492;13.416;2024-02-26T05:49:55;6.90;90.50
80279;DHT22;70683;52.492;13.416;2024-02-26T05:52:23;7.00;90.50
80279;DHT22;70683;52.492;13.416;2024-02-26T05:54:50;7.00;90.20
80279;DHT22;70683;52.492;13.416;2024-02-26T05:57:17;7.10;90.20
80279;DHT22;70683;52.492;13.416;2024-02-26T05:59:44;7.00;90.10
80279;DHT22;70683;52.492;13.416;2024-02-26T06:02:11;7.10;90.20
80279;DHT22;70683;52.492;13.416;2024-02-26T06:04:38;7.00;90.10
80279;DHT22;70683;52.492;13.416;2024-02-26T06:07:05;6.90;90.60
80279;DHT22;70683;52.492;13.416;2024-02-26T06:09:32;6.90;90.50
80279;DHT22;70683;52.492;13.416;2024-02-26T06:11:59;6.90;90.60
80279;DHT22;70683;52.492;13.416;2024-02-26T06:14:25;6.90;90.40
80279;DHT22;70683;52.492;13.416;2024-02-26T06:16:52;6.90;90.20
80279;DHT22;70683;52.492;13.416;2024-02-26T06:19:18;6.90;90.30
80279;DHT22;70683;52.492;13.416;2024-02-26T06:21:48;6.90;90.20
80279;DHT22;70683;52.492;13.416;2024-02-26T06:24:17;6.90;90.20
80279;DHT22;70683;52.492;13.416;2024-02-26T06:26:43;7.00;90.50
80279;DHT22;70683;52.492;13.416;2024-02-26T06:29:10;6.90;90.40
80279;DHT22;70683;52.492;13.416;2024-02-26T06:31:37;6.90;90.70
80279;DHT22;70683;52.492;13.416;2024-02-26T06:34:03;7.00;90.60
80279;DHT22;70683;52.492;13.416;2024-02-26T06:36:30;7.00;90.80
80279;DHT22;70683;52.492;13.416;2024-02-26T06:38:58;7.10;90.70
80279;DHT22;70683;52.492;13.416;2024-02-26T06:41:24;7.10;90.30
80279;DHT22;70683;52.492;13.416;2024-02-26T06:43:54;7.20;90.20
80279;DHT22;70683;52.492;13.416;2024-02-26T06:46:20;7.30;89.90
80279;DHT22;70683;52.492;13.416;2024-02-26T06:48:48;7.30;89.70
80279;DHT22;70683;52.492;13.416;2024-02-26T06:51:15;7.30;89.10
80279;DHT22;70683;52.492;13.416;2024-02-26T06:53:42;7.20;89.80
80279;DHT22;70683;52.492;13.416;2024-02-26T06:56:08;7.20;89.60
80279;DHT22;70683;52.492;13.416;2024-02-26T06:58:35;7.10;89.90
80279;DHT22;70683;52.492;13.416;2024-02-26T07:01:02;7.00;90.20
80279;DHT22;70683;52.492;13.416;2024-02-26T07:03:28;6.90;90.50
80279;DHT22;70683;52.492;13.416;2024-02-26T07:05:56;6.90;90.60
80279;DHT22;70683;52.492;13.416;2024-02-26T07:08:23;6.90;90.60
80279;DHT22;70683;52.492;13.416;2024-02-26T07:10:49;7.00;90.50
80279;DHT22;70683;52.492;13.416;2024-02-26T07:13:16;7.10;90.30
80279;DHT22;70683;52.492;13.416;2024-02-26T07:15:42;7.10;90.20
80279;DHT22;70683;52.492;13.416;2024-02-26T07:18:09;7.10;90.40
80279;DHT22;70683;52.492;13.416;2024-02-26T07:20:36;7.10;90.30
80279;DHT22;70683;52.492;13.416;2024-02-26T07:23:03;7.10;90.20
80279;DHT22;70683;52.492;13.416;2024-02-26T07:25:29;7.10;90.40
80279;DHT22;70683;52.492;13.416;2024-02-26T07:27:56;7.10;90.30
80279;DHT22;70683;52.492;13.416;2024-02-26T07:30:23;7.10;90.30
80279;DHT22;70683;52.492;13.416;2024-02-26T07:32:50;7.10;90.40
80279;DHT22;70683;52.492;13.416;2024-02-26T07:35:17;7.10;90.40
80279;DHT22;70683;52.492;13.416;2024-02-26T07:37:44;7.30;90.50
80279;DHT22;70683;52.492;13.416;2024-02-26T07:40:13;7.30;90.00
80279;DHT22;70683;52.492;13.416;2024-02-26T07:42:39;7.40;90.10
80279;DHT22;70683;52.492;13.416;2024-02-26T07:45:06;7.40;90.00
80279;DHT22;70683;52.492;13.416;2024-02-26T07:47:33;7.40;90.00
80279;DHT22;70683;52.492;13.416;2024-02-26T07:50:02;7.50;90.00
80279;DHT22;70683;52.492;13.416;2024-02-26T07:52:28;7.70;89.40
80279;DHT22;70683;52.492;13.416;2024-02-26T07:54:55;7.80;89.00
80279;DHT22;70683;52.492;13.416;2024-02-26T07:57:21;7.90;88.10
80279;DHT22;70683;52.492;13.416;2024-02-26T07:59:48;8.10;87.80
80279;DHT22;70683;52.492;13.416;2024-02-26T08:02:16;8.30;86.50
80279;DHT22;70683;52.492;13.416;2024-02-26T08:04:43;8.50;85.60
80279;DHT22;70683;52.492;13.416;2024-02-26T08:07:10;8.50;85.40
80279;DHT22;70683;52.492;13.416;2024-02-26T08:09:36;8.60;85.40
80279;DHT22;70683;52.492;13.416;2024-02-26T08:12:03;8.70;84.80
80279;DHT22;70683;52.492;13.416;2024-02-26T08:14:30;8.80;84.00
80279;DHT22;70683;52.492;13.416;2024-02-26T08:16:59;8.80;84.00
80279;DHT22;70683;52.492;13.416;2024-02-26T08:19:26;8.80;83.60
80279;DHT22;70683;52.492;13.416;2024-02-26T08:21:53;8.90;83.90
80279;DHT22;70683;52.492;13.416;2024-02-26T08:24:19;8.80;83.40
80279;DHT22;70683;52.492;13.416;2024-02-26T08:26:46;8.90;84.20
80279;DHT22;70683;52.492;13.416;2024-02-26T08:29:13;9.00;83.30
80279;DHT22;70683;52.492;13.416;2024-02-26T08:31:39;9.20;83.30
80279;DHT22;70683;52.492;13.416;2024-02-26T08:34:07;9.30;82.60
80279;DHT22;70683;52.492;13.416;2024-02-26T08:36:34;9.50;82.00
80279;DHT22;70683;52.492;13.416;2024-02-26T08:39:01;9.80;80.40
80279;DHT22;70683;52.492;13.416;2024-02-26T08:41:27;9.90;80.10
80279;DHT22;70683;52.492;13.416;2024-02-26T08:43:54;10.10;79.60
80279;DHT22;70683;52.492;13.416;2024-02-26T08:46:21;10.20;78.90
80279;DHT22;70683;52.492;13.416;2024-02-26T08:48:48;10.30;78.40
80279;DHT22;70683;52.492;13.416;2024-02-26T08:51:15;10.50;77.90
80279;DHT22;70683;52.492;13.416;2024-02-26T08:53:42;10.70;77.40
80279;DHT22;70683;52.492;13.416;2024-02-26T08:56:09;10.70;77.10
80279;DHT22;70683;52.492;13.416;2024-02-26T08:58:38;10.80;76.40
80279;DHT22;70683;52.492;13.416;2024-02-26T09:01:05;11.00;76.50
80279;DHT22;70683;52.492;13.416;2024-02-26T09:03:31;11.30;75.90
80279;DHT22;70683;52.492;13.416;2024-02-26T09:05:58;11.50;73.70
80279;DHT22;70683;52.492;13.416;2024-02-26T09:08:25;11.70;72.90
80279;DHT22;70683;52.492;13.416;2024-02-26T09:10:51;11.90;72.30
80279;DHT22;70683;52.492;13.416;2024-02-26T09:13:18;11.90;71.60
80279;DHT22;70683;52.492;13.416;2024-02-26T09:15:44;12.00;71.80
80279;DHT22;70683;52.492;13.416;2024-02-26T09:18:11;12.30;71.70
80279;DHT22;70683;52.492;13.416;2024-02-26T09:20:39;12.50;71.20
80279;DHT22;70683;52.492;13.416;2024-02-26T09:23:05;12.50;70.00
80279;DHT22;70683;52.492;13.416;2024-02-26T09:25:32;12.70;69.20
80279;DHT22;70683;52.492;13.416;2024-02-26T09:27:59;12.70;69.00
80279;DHT22;70683;52.492;13.416;2024-02-26T09:30:26;12.60;68.20
80279;DHT22;70683;52.492;13.416;2024-02-26T09:32:52;12.60;68.30
80279;DHT22;70683;52.492;13.416;2024-02-26T09:35:19;12.40;68.50
80279;DHT22;70683;52.492;13.416;2024-02-26T09:37:47;12.40;68.30
80279;DHT22;70683;52.492;13.416;2024-02-26T09:40:15;12.30;68.50
80279;DHT22;70683;52.492;13.416;2024-02-26T09:42:44;12.30;68.60
80279;DHT22;70683;52.492;13.416;2024-02-26T09:45:17;12.30;68.40
80279;DHT22;70683;52.492;13.416;2024-02-26T09:47:44;12.50;69.00
80279;DHT22;70683;52.492;13.416;2024-02-26T09:50:11;12.50;68.10
80279;DHT22;70683;52.492;13.416;2024-02-26T09:52:41;12.60;67.80
80279;DHT22;70683;52.492;13.416;2024-02-26T09:55:09;12.80;68.10
80279;DHT22;70683;52.492;13.416;2024-02-26T09:57:37;12.90;67.60
80279;DHT22;70683;52.492;13.416;2024-02-26T10:02:48;13.00;66.70
80279;DHT22;70683;52.492;13.416;2024-02-26T10:05:18;13.10;66.10
80279;DHT22;70683;52.492;13.416;2024-02-26T10:07:45;13.20;66.70
80279;DHT22;70683;52.492;13.416;2024-02-26T10:10:14;13.30;66.20
80279;DHT22;70683;52.492;13.416;2024-02-26T10:12:40;13.50;65.60
80279;DHT22;70683;52.492;13.416;2024-02-26T10:15:07;13.40;65.10
80279;DHT22;70683;52.492;13.416;2024-02-26T10:17:34;13.60;64.80
80279;DHT22;70683;52.492;13.416;2024-02-26T10:20:19;13.70;63.30
80279;DHT22;70683;52.492;13.416;2024-02-26T10:22:49;13.70;63.50
80279;DHT22;70683;52.492;13.416;2024-02-26T10:25:17;13.70;63.20
80279;DHT22;70683;52.492;13.416;2024-02-26T10:27:46;13.70;62.80
80279;DHT22;70683;52.492;13.416;2024-02-26T10:30:19;13.80;63.20
80279;DHT22;70683;52.492;13.416;2024-02-26T10:32:46;13.70;62.50
80279;DHT22;70683;52.492;13.416;2024-02-26T10:35:15;13.40;63.20
80279;DHT22;70683;52.492;13.416;2024-02-26T10:37:44;13.50;62.80
80279;DHT22;70683;52.492;13.416;2024-02-26T10:40:11;13.50;63.00
80279;DHT22;70683;52.492;13.416;2024-02-26T10:42:38;13.50;63.40
80279;DHT22;70683;52.492;13.416;2024-02-26T10:45:05;13.70;62.60
80279;DHT22;70683;52.492;13.416;2024-02-26T10:47:33;13.80;62.30
80279;DHT22;70683;52.492;13.416;2024-02-26T10:50:02;13.90;61.70
80279;DHT22;70683;52.492;13.416;2024-02-26T10:52:32;14.10;62.10
80279;DHT22;70683;52.492;13.416;2024-02-26T10:55:02;14.10;60.20
80279;DHT22;70683;52.492;13.416;2024-02-26T10:57:35;14.10;61.30
80279;DHT22;70683;52.492;13.416;2024-02-26T11:00:04;14.20;60.40
80279;DHT22;70683;52.492;13.416;2024-02-26T11:02:33;14.20;61.10
80279;DHT22;70683;52.492;13.416;2024-02-26T11:05:02;14.30;60.30
80279;DHT22;70683;52.492;13.416;2024-02-26T11:07:31;14.20;59.90
80279;DHT22;70683;52.492;13.416;2024-02-26T11:10:00;14.20;59.80
80279;DHT22;70683;52.492;13.416;2024-02-26T11:12:28;14.30;58.80
80279;DHT22;70683;52.492;13.416;2024-02-26T11:14:56;14.30;59.50
80279;DHT22;70683;52.492;13.416;2024-02-26T11:17:27;14.40;59.10
80279;DHT22;70683;52.492;13.416;2024-02-26T11:19:56;14.30;59.00
80279;DHT22;70683;52.492;13.416;2024-02-26T11:22:25;14.40;59.50
80279;DHT22;70683;52.492;13.416;2024-02-26T11:24:54;14.40;58.60
80279;DHT22;70683;52.492;13.416;2024-02-26T11:27:28;14.40;59.10
80279;DHT22;70683;52.492;13.416;2024-02-26T11:29:57;14.50;58.70
80279;DHT22;70683;52.492;13.416;2024-02-26T11:32:27;14.40;57.80
80279;DHT22;70683;52.492;13.416;2024-02-26T11:34:56;14.40;58.70
80279;DHT22;70683;52.492;13.416;2024-02-26T11:37:24;14.40;58.30
80279;DHT22;70683;52.492;13.416;2024-02-26T11:39:52;14.40;58.20
80279;DHT22;70683;52.492;13.416;2024-02-26T11:42:23;14.50;58.00
80279;DHT22;70683;52.492;13.416;2024-02-26T11:44:51;14.70;58.80
80279;DHT22;70683;52.492;13.416;2024-02-26T11:47:19;14.80;57.10
80279;DHT22;70683;52.492;13.416;2024-02-26T11:49:46;14.90;57.40
80279;DHT22;70683;52.492;13.416;2024-02-26T11:52:14;15.00;57.10
80279;DHT22;70683;52.492;13.416;2024-02-26T11:54:46;15.10;56.90
80279;DHT22;70683;52.492;13.416;2024-02-26T11:57:22;15.20;56.20
80279;DHT22;70683;52.492;13.416;2024-02-26T11:59:49;15.30;55.30
80279;DHT22;70683;52.492;13.416;2024-02-26T12:04:55;15.20;54.40
80279;DHT22;70683;52.492;13.416;2024-02-26T12:07:22;15.20;55.70
80279;DHT22;70683;52.492;13.416;2024-02-26T12:09:49;15.20;54.60
80279;DHT22;70683;52.492;13.416;2024-02-26T12:12:18;15.20;55.20
80279;DHT22;70683;52.492;13.416;2024-02-26T12:14:52;15.20;55.10
80279;DHT22;70683;52.492;13.416;2024-02-26T12:17:21;15.20;54.20
80279;DHT22;70683;52.492;13.416;2024-02-26T12:19:48;15.20;53.80
80279;DHT22;70683;52.492;13.416;2024-02-26T12:22:16;15.20;53.20
80279;DHT22;70683;52.492;13.416;2024-02-26T12:24:43;15.00;53.50
80279;DHT22;70683;52.492;13.416;2024-02-26T12:27:10;14.90;54.50
80279;DHT22;70683;52.492;13.416;2024-02-26T12:29:36;15.00;55.60
80279;DHT22;70683;52.492;13.416;2024-02-26T12:32:04;15.10;56.90
80279;DHT22;70683;52.492;13.416;2024-02-26T12:34:32;15.20;58.10
80279;DHT22;70683;52.492;13.416;2024-02-26T12:36:58;15.30;56.60
80279;DHT22;70683;52.492;13.416;2024-02-26T12:39:25;15.50;56.10
80279;DHT22;70683;52.492;13.416;2024-02-26T12:41:52;15.50;55.00
80279;DHT22;70683;52.492;13.416;2024-02-26T12:44:25;15.40;55.10
80279;DHT22;70683;52.492;13.416;2024-02-26T12:49:28;15.40;55.90
80279;DHT22;70683;52.492;13.416;2024-02-26T12:51:55;15.50;55.70
80279;DHT22;70683;52.492;13.416;2024-02-26T12:54:24;15.40;55.10
80279;DHT22;70683;52.492;13.416;2024-02-26T12:56:51;15.30;55.10
80279;DHT22;70683;52.492;13.416;2024-02-26T12:59:18;15.30;55.60
80279;DHT22;70683;52.492;13.416;2024-02-26T13:01:45;15.40;55.70
80279;DHT22;70683;52.492;13.416;2024-02-26T13:04:12;15.40;55.60
80279;DHT22;70683;52.492;13.416;2024-02-26T13:06:39;15.40;54.80
80279;DHT22;70683;52.492;13.416;2024-02-26T13:09:06;15.40;55.40
80279;DHT22;70683;52.492;13.416;2024-02-26T13:11:35;15.40;55.20
80279;DHT22;70683;52.492;13.416;2024-02-26T13:14:01;15.50;54.70
80279;DHT22;70683;52.492;13.416;2024-02-26T13:16:28;15.50;54.40
80279;DHT22;70683;52.492;13.416;2024-02-26T13:18:55;15.50;54.50
80279;DHT22;70683;52.492;13.416;2024-02-26T13:21:23;15.60;54.10
80279;DHT22;70683;52.492;13.416;2024-02-26T13:23:52;15.50;52.70
80279;DHT22;70683;52.492;13.416;2024-02-26T13:26:22;15.40;53.30
80279;DHT22;70683;52.492;13.416;2024-02-26T13:29:03;15.50;53.60
80279;DHT22;70683;52.492;13.416;2024-02-26T13:31:30;15.60;52.40
80279;DHT22;70683;52.492;13.416;2024-02-26T13:33:57;15.50;51.80
80279;DHT22;70683;52.492;13.416;2024-02-26T13:36:24;15.40;52.00
80279;DHT22;70683;52.492;13.416;2024-02-26T13:38:53;15.50;51.20
80279;DHT22;70683;52.492;13.416;2024-02-26T13:41:21;15.40;52.20
80279;DHT22;70683;52.492;13.416;2024-02-26T13:43:50;15.40;52.00
80279;DHT22;70683;52.492;13.416;2024-02-26T13:46:16;15.40;51.20
80279;DHT22;70683;52.492;13.416;2024-02-26T13:48:43;15.40;50.90
80279;DHT22;70683;52.492;13.416;2024-02-26T13:51:10;15.40;51.30
80279;DHT22;70683;52.492;13.416;2024-02-26T13:53:37;15.50;52.10
80279;DHT22;70683;52.492;13.416;2024-02-26T13:56:03;15.60;52.20
80279;DHT22;70683;52.492;13.416;2024-02-26T13:58:31;15.60;51.80
80279;DHT22;70683;52.492;13.416;2024-02-26T14:00:58;15.50;51.50
80279;DHT22;70683;52.492;13.416;2024-02-26T14:03:25;15.40;51.70
80279;DHT22;70683;52.492;13.416;2024-02-26T14:05:52;15.40;51.70
80279;DHT22;70683;52.492;13.416;2024-02-26T14:08:19;15.30;52.10
80279;DHT22;70683;52.492;13.416;2024-02-26T14:10:46;15.30;52.70
80279;DHT22;70683;52.492;13.416;2024-02-26T14:13:12;15.30;52.70
80279;DHT22;70683;52.492;13.416;2024-02-26T14:15:39;15.30;52.50
80279;DHT22;70683;52.492;13.416;2024-02-26T14:18:07;15.20;52.30
80279;DHT22;70683;52.492;13.416;2024-02-26T14:20:34;15.20;52.80
80279;DHT22;70683;52.492;13.416;2024-02-26T14:23:01;15.20;53.20
80279;DHT22;70683;52.492;13.416;2024-02-26T14:25:27;15.20;53.20
80279;DHT22;70683;52.492;13.416;2024-02-26T14:27:55;15.20;53.10
80279;DHT22;70683;52.492;13.416;2024-02-26T14:30:23;15.20;53.30
80279;DHT22;70683;52.492;13.416;2024-02-26T14:32:49;15.10;53.10
80279;DHT22;70683;52.492;13.416;2024-02-26T14:35:16;15.10;53.50
80279;DHT22;70683;52.492;13.416;2024-02-26T14:37:44;15.00;53.70
80279;DHT22;70683;52.492;13.416;2024-02-26T14:40:13;14.90;53.80
80279;DHT22;70683;52.492;13.416;2024-02-26T14:42:40;14.80;53.90
80279;DHT22;70683;52.492;13.416;2024-02-26T14:45:08;14.70;54.70
80279;DHT22;70683;52.492;13.416;2024-02-26T14:47:35;14.70;54.80
80279;DHT22;70683;52.492;13.416;2024-02-26T14:50:02;14.70;55.50
80279;DHT22;70683;52.492;13.416;2024-02-26T14:55:09;14.50;55.10
80279;DHT22;70683;52.492;13.416;2024-02-26T14:57:37;14.50;55.40
80279;DHT22;70683;52.492;13.416;2024-02-26T15:00:05;14.50;55.80
80279;DHT22;70683;52.492;13.416;2024-02-26T15:02:33;14.50;56.00
80279;DHT22;70683;52.492;13.416;2024-02-26T15:05:00;14.40;56.20
80279;DHT22;70683;52.492;13.416;2024-02-26T15:07:27;14.10;55.80
80279;DHT22;70683;52.492;13.416;2024-02-26T15:09:53;14.00;56.90
80279;DHT22;70683;52.492;13.416;2024-02-26T15:12:22;14.00;56.50
80279;DHT22;70683;52.492;13.416;2024-02-26T15:14:49;14.00;57.10
80279;DHT22;70683;52.492;13.416;2024-02-26T15:17:15;14.10;57.10
80279;DHT22;70683;52.492;13.416;2024-02-26T15:19:42;14.00;56.40
80279;DHT22;70683;52.492;13.416;2024-02-26T15:22:09;13.90;57.00
80279;DHT22;70683;52.492;13.416;2024-02-26T15:24:35;13.90;57.30
80279;DHT22;70683;52.492;13.416;2024-02-26T15:27:02;13.90;57.50
80279;DHT22;70683;52.492;13.416;2024-02-26T15:29:29;14.00;57.40
80279;DHT22;70683;52.492;13.416;2024-02-26T15:31:56;13.90;57.30
80279;DHT22;70683;52.492;13.416;2024-02-26T15:34:22;13.90;57.40
80279;DHT22;70683;52.492;13.416;2024-02-26T15:36:49;13.90;57.50